createdAt,value
2019-02-12T00:02:59.532Z,87.26
2019-02-12T00:05:25.298Z,87.37
2019-02-12T00:07:51.063Z,87.56
2019-02-12T00:10:16.832Z,87.82
2019-02-12T00:12:42.612Z,87.92
2019-02-12T00:15:08.363Z,88.13
2019-02-12T00:17:34.123Z,88.19
2019-02-12T00:19:59.911Z,88.29
2019-02-12T00:22:25.662Z,88.32
2019-02-12T00:24:51.422Z,88.17
2019-02-12T00:27:17.183Z,87.80
2019-02-12T00:29:42.952Z,87.46
2019-02-12T00:32:08.731Z,87.01
2019-02-12T00:34:34.479Z,86.87
2019-02-12T00:37:00.237Z,86.82
2019-02-12T00:39:25.983Z,86.69
2019-02-12T00:41:51.742Z,86.57
2019-02-12T00:44:17.492Z,86.76
2019-02-12T00:46:43.257Z,86.64
2019-02-12T00:49:09.012Z,86.65
2019-02-12T00:51:34.779Z,86.43
2019-02-12T00:54:00.541Z,86.20
2019-02-12T00:56:26.301Z,86.05
2019-02-12T00:58:52.049Z,85.86
2019-02-12T01:01:17.822Z,85.73
2019-02-12T01:03:43.595Z,85.21
2019-02-12T01:06:09.330Z,84.52
2019-02-12T01:08:35.081Z,84.04
2019-02-12T01:11:00.853Z,83.82
2019-02-12T01:13:26.701Z,83.45
2019-02-12T01:15:52.474Z,82.81
2019-02-12T01:18:18.232Z,82.57
2019-02-12T01:20:43.985Z,82.16
2019-02-12T01:23:09.761Z,81.73
2019-02-12T01:25:35.509Z,81.63
2019-02-12T01:28:01.287Z,81.42
2019-02-12T01:30:27.044Z,81.65
2019-02-12T01:32:52.806Z,81.99
2019-02-12T01:35:18.568Z,82.28
2019-02-12T01:37:44.335Z,82.53
2019-02-12T01:40:51.763Z,82.62
2019-02-12T01:43:17.532Z,82.74
2019-02-12T01:45:43.297Z,82.98
2019-02-12T01:48:09.066Z,83.00
2019-02-12T01:50:34.843Z,82.95
2019-02-12T01:53:00.606Z,82.57
2019-02-12T01:55:26.357Z,82.54
2019-02-12T01:57:52.134Z,82.22
2019-02-12T02:00:17.896Z,82.16
2019-02-12T02:02:43.807Z,82.30
2019-02-12T02:05:09.507Z,82.16
2019-02-12T02:07:35.264Z,82.20
2019-02-12T02:10:01.014Z,81.98
2019-02-12T02:12:26.787Z,81.99
2019-02-12T02:14:52.545Z,81.76
2019-02-12T02:17:18.313Z,81.67
2019-02-12T02:19:44.074Z,81.71
2019-02-12T02:22:09.839Z,81.61
2019-02-12T02:24:35.591Z,81.34
2019-02-12T02:27:01.360Z,81.32
2019-02-12T02:29:27.139Z,81.32
2019-02-12T02:31:52.902Z,81.84
2019-02-12T02:34:18.645Z,81.92
2019-02-12T02:36:44.429Z,82.29
2019-02-12T02:39:10.183Z,83.62
2019-02-12T02:41:35.934Z,85.84
2019-02-12T02:44:01.705Z,88.08
2019-02-12T02:46:27.450Z,89.32
2019-02-12T02:48:53.222Z,90.09
2019-02-12T02:51:19.012Z,90.23
2019-02-12T02:53:44.772Z,90.36
2019-02-12T02:56:10.528Z,90.21
2019-02-12T02:58:36.295Z,90.08
2019-02-12T03:01:02.151Z,89.77
2019-02-12T03:03:27.917Z,89.22
2019-02-12T03:05:53.680Z,89.09
2019-02-12T03:08:19.449Z,89.12
2019-02-12T03:10:45.197Z,88.84
2019-02-12T03:13:10.959Z,88.78
2019-02-12T03:15:36.712Z,88.59
2019-02-12T03:18:02.482Z,88.37
2019-02-12T03:20:28.228Z,88.13
2019-02-12T03:22:53.994Z,88.27
2019-02-12T03:25:19.750Z,88.08
2019-02-12T03:27:45.515Z,87.93
2019-02-12T03:33:18.514Z,87.34
2019-02-12T03:35:44.295Z,87.05
2019-02-12T03:38:10.035Z,86.85
2019-02-12T03:40:35.786Z,86.68
2019-02-12T03:43:01.553Z,86.50
2019-02-12T03:45:27.319Z,86.14
2019-02-12T03:47:53.077Z,86.34
2019-02-12T03:50:18.833Z,86.07
2019-02-12T03:52:44.620Z,85.93
2019-02-12T03:55:52.078Z,85.76
2019-02-12T03:58:17.841Z,85.91
2019-02-12T04:00:43.604Z,85.81
2019-02-12T04:03:09.459Z,85.32
2019-02-12T04:09:02.286Z,84.68
2019-02-12T04:11:28.041Z,84.08
2019-02-12T04:13:53.797Z,84.12
2019-02-12T04:16:19.550Z,84.30
2019-02-12T04:18:45.317Z,83.95
2019-02-12T04:21:11.072Z,83.87
2019-02-12T04:23:36.843Z,84.05
2019-02-12T04:26:22.496Z,83.64
2019-02-12T04:28:48.269Z,83.64
2019-02-12T04:31:14.020Z,83.76
2019-02-12T04:33:39.793Z,83.35
2019-02-12T04:36:05.543Z,83.13
2019-02-12T04:38:31.306Z,83.22
2019-02-12T04:40:57.066Z,83.34
2019-02-12T04:43:22.821Z,83.68
2019-02-12T04:45:48.608Z,83.63
2019-02-12T04:48:34.258Z,83.45
2019-02-12T04:51:00.045Z,83.45
2019-02-12T04:53:25.792Z,83.41
2019-02-12T04:55:51.558Z,83.41
2019-02-12T04:58:17.399Z,83.48
2019-02-12T05:00:43.158Z,83.24
2019-02-12T05:03:08.930Z,82.98
2019-02-12T05:05:34.698Z,82.89
2019-02-12T05:08:00.466Z,82.75
2019-02-12T05:11:07.907Z,82.12
2019-02-12T05:13:33.652Z,81.97
2019-02-12T05:15:59.438Z,81.30
2019-02-12T05:18:25.197Z,80.61
2019-02-12T05:20:50.942Z,80.16
2019-02-12T05:23:16.696Z,80.04
2019-02-12T05:25:42.474Z,79.49
2019-02-12T05:28:08.226Z,78.83
2019-02-12T05:30:34.025Z,78.36
2019-02-12T05:32:59.797Z,78.46
2019-02-12T05:35:25.576Z,78.60
2019-02-12T05:37:51.321Z,78.72
2019-02-12T05:40:17.121Z,78.27
2019-02-12T05:42:42.866Z,78.57
2019-02-12T05:45:28.513Z,78.15
2019-02-12T05:47:54.267Z,78.60
2019-02-12T05:50:20.057Z,77.98
2019-02-12T05:52:54.014Z,77.95
2019-02-12T05:55:13.514Z,77.69
2019-02-12T05:57:39.300Z,77.68
2019-02-12T06:00:46.732Z,77.45
2019-02-12T06:03:12.515Z,77.29
2019-02-12T06:05:38.273Z,77.62
2019-02-12T06:08:04.061Z,77.68
2019-02-12T06:10:29.819Z,77.61
2019-02-12T06:12:55.569Z,77.93
2019-02-12T06:15:21.360Z,78.05
2019-02-12T06:17:47.076Z,77.66
2019-02-12T06:20:12.858Z,77.74
2019-02-12T06:22:38.605Z,78.07
2019-02-12T06:28:18.226Z,78.24
2019-02-12T06:30:44.142Z,78.72
2019-02-12T06:33:09.854Z,78.86
2019-02-12T06:35:35.622Z,78.76
2019-02-12T06:38:01.369Z,78.83
2019-02-12T06:40:27.169Z,78.91
2019-02-12T06:42:52.946Z,78.57
2019-02-12T06:45:18.694Z,78.66
2019-02-12T06:47:44.459Z,78.82
2019-02-12T06:50:51.917Z,78.84
2019-02-12T06:53:17.675Z,79.25
2019-02-12T06:55:43.458Z,79.75
2019-02-12T06:58:09.212Z,80.24
2019-02-12T07:00:34.992Z,80.67
2019-02-12T07:03:21.024Z,81.25
2019-02-12T07:06:28.486Z,81.49
2019-02-12T07:09:35.919Z,81.91
2019-02-12T07:13:03.261Z,82.22
2019-02-12T07:15:29.107Z,81.78
2019-02-12T07:18:34.675Z,80.86
2019-02-12T07:21:42.123Z,80.72
2019-02-12T07:24:49.571Z,80.35
2019-02-12T07:31:10.812Z,80.66
2019-02-12T07:34:16.364Z,81.54
2019-02-12T07:37:23.794Z,82.09
2019-02-12T07:40:29.335Z,82.60
2019-02-12T07:43:36.778Z,83.07
2019-02-12T07:47:02.200Z,83.68
2019-02-12T07:50:28.363Z,83.96
2019-02-12T07:53:35.803Z,84.43
2019-02-12T07:56:43.263Z,84.31
2019-02-12T07:59:50.706Z,84.24
2019-02-12T08:02:58.157Z,84.07
2019-02-12T08:06:05.589Z,83.74
2019-02-12T08:09:13.023Z,83.50
2019-02-12T08:12:18.584Z,83.51
2019-02-12T08:18:39.915Z,82.85
2019-02-12T08:21:47.340Z,82.71
2019-02-12T08:25:12.795Z,82.32
2019-02-12T08:28:20.229Z,82.21
2019-02-12T08:31:27.681Z,81.54
2019-02-12T08:37:48.796Z,80.39
2019-02-12T08:41:14.276Z,80.02
2019-02-12T08:44:19.821Z,78.39
2019-02-12T08:47:45.341Z,77.87
2019-02-12T09:00:34.270Z,75.68
2019-02-12T09:03:39.895Z,75.71
2019-02-12T09:07:05.470Z,74.67
2019-02-12T09:10:11.073Z,74.31
2019-02-12T09:13:36.522Z,74.49
2019-02-12T09:16:42.121Z,74.37
2019-02-12T09:19:48.458Z,73.71
2019-02-12T09:22:54.003Z,73.79
2019-02-12T09:26:02.297Z,73.78
2019-02-12T09:32:36.877Z,73.54
2019-02-12T09:35:42.437Z,73.53
2019-02-12T09:39:07.870Z,73.33
2019-02-12T09:42:33.363Z,72.57
2019-02-12T09:45:40.883Z,71.41
2019-02-12T09:48:46.463Z,70.89
2019-02-12T09:55:06.168Z,70.19
2019-02-12T09:58:11.779Z,69.12
2019-02-12T10:01:19.254Z,69.29
2019-02-12T10:04:24.868Z,68.83
2019-02-12T10:10:45.523Z,68.23
2019-02-12T10:13:51.187Z,68.07
2019-02-12T10:16:58.689Z,68.30
2019-02-12T10:23:33.959Z,68.51
2019-02-12T10:29:55.143Z,68.62
2019-02-12T10:32:20.738Z,68.19
2019-02-12T10:34:46.528Z,69.62
2019-02-12T10:37:12.319Z,69.88
2019-02-12T10:39:58.015Z,68.22
2019-02-12T10:42:23.834Z,68.68
2019-02-12T10:44:49.630Z,68.25
2019-02-12T10:47:15.467Z,68.09
2019-02-12T10:49:41.324Z,70.21
2019-02-12T10:52:07.445Z,69.78
2019-02-12T10:54:33.331Z,69.46
2019-02-12T10:56:59.113Z,69.13
2019-02-12T10:59:24.881Z,68.84
2019-02-12T11:01:50.688Z,69.27
2019-02-12T11:04:16.472Z,70.26
2019-02-12T11:06:42.258Z,69.36
2019-02-12T11:09:49.745Z,67.56
2019-02-12T11:12:15.635Z,67.37
2019-02-12T11:14:41.472Z,66.98
2019-02-12T11:17:07.384Z,66.64
2019-02-12T11:19:33.151Z,66.51
2019-02-12T11:21:58.961Z,66.26
2019-02-12T11:24:24.777Z,66.32
2019-02-12T11:26:50.601Z,64.80
2019-02-12T11:29:16.414Z,66.15
2019-02-12T11:31:42.211Z,66.77
2019-02-12T11:34:08.019Z,66.51
2019-02-12T11:36:33.829Z,67.22
2019-02-12T11:38:59.657Z,67.37
2019-02-12T11:41:25.419Z,67.86
2019-02-12T11:43:51.300Z,67.97
2019-02-12T11:46:17.090Z,68.69
2019-02-12T11:48:42.903Z,68.70
2019-02-12T11:51:08.689Z,69.54
2019-02-12T11:53:34.501Z,69.46
2019-02-12T11:56:00.296Z,69.70
2019-02-12T11:58:26.061Z,69.62
2019-02-12T12:03:59.059Z,70.46
2019-02-12T12:06:24.805Z,69.24
2019-02-12T12:08:50.564Z,68.49
2019-02-12T12:11:16.340Z,67.76
2019-02-12T12:13:42.122Z,67.79
2019-02-12T12:16:07.904Z,68.39
2019-02-12T12:18:33.736Z,67.38
2019-02-12T12:20:59.486Z,66.91
2019-02-12T12:23:25.279Z,66.71
2019-02-12T12:25:51.077Z,66.18
2019-02-12T12:28:16.915Z,64.66
2019-02-12T12:30:42.739Z,64.66
2019-02-12T12:33:08.511Z,63.99
2019-02-12T12:35:34.316Z,63.71
2019-02-12T12:38:00.069Z,63.38
2019-02-12T12:40:25.825Z,63.73
2019-02-12T12:42:51.576Z,63.74
2019-02-12T12:45:17.347Z,63.53
2019-02-12T12:47:43.089Z,64.04
2019-02-12T12:50:50.541Z,64.23
2019-02-12T12:53:16.297Z,64.99
2019-02-12T12:55:42.057Z,66.13
2019-02-12T12:58:07.825Z,65.94
2019-02-12T13:00:33.595Z,65.41
2019-02-12T13:02:59.340Z,65.23
2019-02-12T13:05:25.102Z,65.34
2019-02-12T13:07:50.857Z,64.01
2019-02-12T13:10:16.622Z,63.38
2019-02-12T13:12:42.367Z,63.73
2019-02-12T13:15:49.819Z,61.67
2019-02-12T13:18:15.572Z,60.68
2019-02-12T13:20:41.332Z,60.47
2019-02-12T13:23:07.085Z,61.31
2019-02-12T13:25:32.850Z,60.66
2019-02-12T13:27:58.620Z,61.22
2019-02-12T13:30:24.410Z,60.60
2019-02-12T13:32:50.160Z,60.06
2019-02-12T13:35:15.963Z,61.38
2019-02-12T13:37:41.692Z,61.79
2019-02-12T13:40:49.211Z,61.46
2019-02-12T13:43:15.048Z,62.32
2019-02-12T13:45:40.794Z,62.92
2019-02-12T13:48:06.665Z,64.01
2019-02-12T13:50:32.457Z,64.85
2019-02-12T13:52:58.225Z,65.85
2019-02-12T13:55:24.094Z,66.38
2019-02-12T13:57:49.847Z,66.52
2019-02-12T14:00:35.500Z,67.03
2019-02-12T14:03:01.288Z,66.58
2019-02-12T14:05:27.063Z,67.09
2019-02-12T14:07:52.830Z,67.29
2019-02-12T14:10:18.602Z,61.07
2019-02-12T14:12:44.353Z,60.26
2019-02-12T14:15:51.827Z,60.87
2019-02-12T14:18:17.580Z,62.02
2019-02-12T14:20:43.341Z,62.83
2019-02-12T14:23:09.084Z,62.62
2019-02-12T14:25:34.868Z,61.84
2019-02-12T14:28:00.637Z,62.52
2019-02-12T14:30:26.430Z,61.58
2019-02-12T14:32:52.183Z,62.29
2019-02-12T14:35:17.947Z,62.62
2019-02-12T14:37:43.719Z,62.51
2019-02-12T14:40:51.193Z,62.18
2019-02-12T14:43:16.944Z,62.37
2019-02-12T14:45:42.736Z,62.80
2019-02-12T14:48:08.499Z,63.23
2019-02-12T14:50:34.289Z,62.97
2019-02-12T14:53:00.035Z,63.71
2019-02-12T14:55:33.385Z,64.16
2019-02-12T14:57:53.454Z,64.36
2019-02-12T15:00:19.306Z,64.38
2019-02-12T15:02:45.076Z,64.81
2019-02-12T15:05:10.833Z,65.34
2019-02-12T15:07:36.598Z,65.70
2019-02-12T15:10:44.045Z,65.57
2019-02-12T15:13:09.797Z,65.58
2019-02-12T15:15:35.557Z,66.01
2019-02-12T15:18:01.308Z,66.18
2019-02-12T15:20:27.109Z,66.16
2019-02-12T15:22:52.890Z,66.28
2019-02-12T15:25:18.637Z,66.47
2019-02-12T15:27:44.419Z,66.71
2019-02-12T15:30:51.886Z,67.41
2019-02-12T15:33:17.639Z,67.82
2019-02-12T15:35:43.384Z,68.56
2019-02-12T15:38:09.143Z,69.42
2019-02-12T15:40:34.908Z,69.61
2019-02-12T15:43:00.679Z,69.69
2019-02-12T15:45:26.435Z,70.06
2019-02-12T15:47:52.220Z,70.31
2019-02-12T15:50:17.986Z,70.86
2019-02-12T15:52:43.761Z,71.07
2019-02-12T15:55:51.670Z,71.34
2019-02-12T15:58:17.454Z,71.73
2019-02-12T16:00:43.446Z,72.17
2019-02-12T16:03:10.875Z,72.50
2019-02-12T16:05:36.658Z,73.00
2019-02-12T16:08:02.433Z,73.20
2019-02-12T16:10:28.192Z,73.58
2019-02-12T16:12:53.970Z,74.11
2019-02-12T16:15:21.925Z,74.29
2019-02-12T16:17:47.422Z,74.92
2019-02-12T16:20:13.168Z,75.34
2019-02-12T16:22:38.948Z,75.49
2019-02-12T16:25:46.375Z,75.82
2019-02-12T16:28:12.144Z,76.01
2019-02-12T16:30:37.919Z,76.39
2019-02-12T16:33:03.701Z,76.66
2019-02-12T16:35:29.447Z,76.78
2019-02-12T16:37:55.214Z,76.56
2019-02-12T16:40:20.969Z,76.76
2019-02-12T16:42:46.757Z,76.91
2019-02-12T16:45:54.186Z,77.18
2019-02-12T16:48:19.951Z,77.02
2019-02-12T16:50:45.705Z,77.42
2019-02-12T16:53:11.493Z,77.28
2019-02-12T16:55:37.243Z,77.53
2019-02-12T16:58:03.006Z,77.45
2019-02-12T17:00:28.766Z,77.60
2019-02-12T17:02:54.535Z,77.95
2019-02-12T17:05:20.290Z,77.84
2019-02-12T17:07:46.072Z,78.20
2019-02-12T17:10:53.506Z,78.33
2019-02-12T17:13:19.273Z,79.00
2019-02-12T17:15:45.024Z,79.37
2019-02-12T17:18:10.788Z,79.76
2019-02-12T17:20:36.566Z,80.28
2019-02-12T17:23:02.351Z,80.93
2019-02-12T17:25:28.096Z,81.10
2019-02-12T17:27:53.862Z,81.37
2019-02-12T17:30:19.642Z,81.47
2019-02-12T17:32:45.413Z,81.46
2019-02-12T17:35:11.199Z,81.36
2019-02-12T17:37:36.945Z,81.22
2019-02-12T17:40:44.397Z,81.53
2019-02-12T17:43:10.167Z,81.54
2019-02-12T17:45:35.917Z,81.37
2019-02-12T17:48:01.681Z,81.30
2019-02-12T17:50:27.441Z,80.89
2019-02-12T17:52:53.206Z,80.58
2019-02-12T17:55:18.948Z,80.56
2019-02-12T17:57:44.713Z,80.60
2019-02-12T18:03:03.972Z,81.21
2019-02-12T18:05:29.750Z,81.05
2019-02-12T18:07:55.516Z,81.87
2019-02-12T18:10:21.352Z,82.00
2019-02-12T18:12:47.104Z,82.57
2019-02-12T18:15:54.545Z,82.86
2019-02-12T18:18:20.302Z,82.68
2019-02-12T18:20:46.059Z,82.53
2019-02-12T18:23:11.819Z,82.32
2019-02-12T18:25:37.566Z,82.31
2019-02-12T18:28:03.313Z,82.06
2019-02-12T18:30:29.100Z,81.78
2019-02-12T18:32:54.872Z,81.84
2019-02-12T18:35:20.737Z,81.69
2019-02-12T18:37:46.495Z,81.74
2019-02-12T18:40:53.933Z,82.05
2019-02-12T18:43:19.796Z,82.13
2019-02-12T18:45:45.566Z,81.84
2019-02-12T18:48:11.322Z,82.01
2019-02-12T18:50:37.081Z,82.04
2019-02-12T18:53:02.835Z,82.22
2019-02-12T18:55:28.599Z,82.40
2019-02-12T18:57:54.355Z,82.53
2019-02-12T19:01:01.811Z,82.77
2019-02-12T19:03:27.568Z,83.03
2019-02-12T19:11:48.575Z,83.76
2019-02-12T19:14:08.215Z,83.92
2019-02-12T19:16:33.997Z,84.09
2019-02-12T19:18:59.751Z,84.50
2019-02-12T19:21:25.515Z,84.69
2019-02-12T19:23:51.272Z,84.75
2019-02-12T19:26:17.028Z,84.82
2019-02-12T19:28:42.795Z,85.16
2019-02-12T19:31:08.577Z,85.25
2019-02-12T19:33:34.329Z,85.26
2019-02-12T19:36:00.094Z,84.98
2019-02-12T19:38:25.849Z,85.52
2019-02-12T19:40:51.604Z,85.78
2019-02-12T19:43:17.348Z,85.84
2019-02-12T19:45:43.108Z,86.02
2019-02-12T19:48:08.863Z,86.04
2019-02-12T19:50:34.628Z,86.50
2019-02-12T19:53:00.409Z,86.36
2019-02-12T19:55:26.316Z,86.27
2019-02-12T19:57:52.064Z,86.20
2019-02-12T20:03:05.125Z,86.86
2019-02-12T20:05:30.892Z,87.00
2019-02-12T20:07:56.683Z,86.84
2019-02-12T20:10:22.428Z,86.99
2019-02-12T20:12:48.214Z,86.98
2019-02-12T20:15:33.847Z,87.18
2019-02-12T20:17:59.615Z,87.31
2019-02-12T20:20:25.371Z,87.32
2019-02-12T20:22:51.134Z,87.13
2019-02-12T20:25:16.917Z,87.17
2019-02-12T20:27:42.711Z,87.36
2019-02-12T20:30:28.353Z,87.35
2019-02-12T20:32:54.131Z,87.73
2019-02-12T20:36:01.569Z,87.68
2019-02-12T20:38:27.328Z,87.86
2019-02-12T20:40:53.084Z,87.76
2019-02-12T20:43:18.849Z,87.45
2019-02-12T20:45:44.602Z,87.55
2019-02-12T20:48:10.366Z,87.65
2019-02-12T20:50:36.118Z,87.53
2019-02-12T20:53:01.877Z,87.57
2019-02-12T20:55:27.646Z,87.40
2019-02-12T20:57:53.413Z,87.48
2019-02-12T21:01:00.963Z,87.22
2019-02-12T21:03:27.050Z,87.23
2019-02-12T21:05:53.111Z,87.16
2019-02-12T21:08:18.879Z,87.08
2019-02-12T21:10:44.629Z,87.12
2019-02-12T21:13:10.720Z,87.02
2019-02-12T21:15:36.774Z,86.80
2019-02-12T21:18:02.558Z,86.80
2019-02-12T21:20:28.352Z,86.75
2019-02-12T21:23:35.797Z,86.69
2019-02-12T21:26:01.811Z,87.00
2019-02-12T21:28:27.572Z,86.91
2019-02-12T21:30:53.343Z,86.64
2019-02-12T21:33:19.101Z,86.67
2019-02-12T21:35:44.856Z,86.96
2019-02-12T21:41:26.274Z,87.04
2019-02-12T21:43:52.391Z,86.96
2019-02-12T21:46:18.142Z,86.68
2019-02-12T21:48:44.360Z,87.09
2019-02-12T21:51:10.346Z,86.86
2019-02-12T21:53:56.192Z,86.83
2019-02-12T21:56:21.940Z,86.83
2019-02-12T21:58:47.688Z,86.89
2019-02-12T22:01:13.444Z,87.09
2019-02-12T22:03:39.205Z,87.06
2019-02-12T22:06:04.982Z,86.83
2019-02-12T22:08:30.743Z,86.94
2019-02-12T22:10:56.524Z,86.61
2019-02-12T22:13:22.280Z,86.53
2019-02-12T22:15:48.065Z,86.27
2019-02-12T22:18:13.814Z,86.51
2019-02-12T22:20:39.568Z,86.45
2019-02-12T22:23:05.320Z,86.46
2019-02-12T22:25:31.082Z,86.14
2019-02-12T22:27:56.858Z,86.34
2019-02-12T22:33:35.850Z,86.09
2019-02-12T22:36:01.608Z,86.01
2019-02-12T22:38:27.351Z,86.34
2019-02-12T22:40:59.960Z,86.37
2019-02-12T22:43:25.727Z,86.35
2019-02-12T22:45:51.525Z,86.29
2019-02-12T22:48:17.264Z,86.26
2019-02-12T22:50:43.027Z,86.61
2019-02-12T22:53:08.784Z,86.52
2019-02-12T22:55:34.604Z,86.64
2019-02-12T22:58:00.346Z,86.71
2019-02-12T23:03:40.315Z,86.79
2019-02-12T23:08:44.189Z,87.08
2019-02-12T23:11:09.948Z,87.11
2019-02-12T23:13:35.692Z,87.17
2019-02-12T23:16:01.558Z,87.38
2019-02-12T23:21:34.571Z,87.74
2019-02-12T23:24:00.343Z,87.67
2019-02-12T23:26:26.136Z,87.74
2019-02-12T23:28:54.614Z,87.76
2019-02-12T23:31:20.387Z,87.86
2019-02-12T23:33:46.143Z,88.24
2019-02-12T23:36:12.136Z,88.51
2019-02-12T23:41:23.917Z,89.09
2019-02-12T23:43:49.668Z,89.22
2019-02-12T23:49:28.711Z,89.71
2019-02-12T23:51:54.474Z,90.26
2019-02-12T23:54:20.263Z,90.65
2019-02-12T23:56:46.013Z,90.93
